Time;durP1;ratioP1;P1;durP2;ratioP2;P2;SDS_P1;SDS_P2;PMS_P1;PMS_P2;Temp;Humidity;BMP_temperature;BMP_pressure;BME280_temperature;BME280_humidity;BME280_pressure;Samples;Min_cycle;Max_cycle;Signal;HPM_P1;HPM_P2
2021/12/30 00:01:56;;;;;;;;;;;19.40;53.50;;;;;;5080525;28;20011;-77
2021/12/30 00:04:22;;;;;;;;;;;19.40;53.60;;;;;;5072489;28;20723;-74
2021/12/30 00:06:48;;;;;;;;;;;19.40;53.70;;;;;;5073388;28;19940;-79
2021/12/30 00:09:18;;;;;;;;;;;19.40;53.70;;;;;;5079840;28;20475;-77
2021/12/30 00:11:45;;;;;;;;;;;19.40;53.80;;;;;;5079615;28;19947;-76
2021/12/30 00:14:11;;;;;;;;;;;19.40;53.90;;;;;;5077458;28;19935;-74
2021/12/30 00:16:36;;;;;;;;;;;19.40;54.00;;;;;;5072120;28;19925;-76
2021/12/30 00:19:02;;;;;;;;;;;19.40;54.00;;;;;;5074621;28;19928;-75
2021/12/30 00:21:28;;;;;;;;;;;19.30;54.00;;;;;;5078954;28;19924;-74
2021/12/30 00:23:54;;;;;;;;;;;19.40;54.10;;;;;;5079294;28;19932;-76
2021/12/30 00:26:19;;;;;;;;;;;19.40;54.20;;;;;;5078441;28;20381;-75
2021/12/30 00:28:45;;;;;;;;;;;19.30;54.20;;;;;;5079672;28;19932;-73
2021/12/30 00:31:10;;;;;;;;;;;19.30;54.30;;;;;;5079499;28;20605;-75
2021/12/30 00:33:36;;;;;;;;;;;19.40;54.40;;;;;;5079690;28;19932;-75
2021/12/30 00:36:08;;;;;;;;;;;19.30;54.40;;;;;;5078133;28;19928;-75
2021/12/30 00:38:35;;;;;;;;;;;19.30;54.50;;;;;;5071301;28;19929;-74
2021/12/30 00:41:00;;;;;;;;;;;19.30;54.40;;;;;;5077474;28;19929;-73
2021/12/30 00:43:26;;;;;;;;;;;19.30;54.50;;;;;;5079461;28;20266;-73
2021/12/30 00:45:51;;;;;;;;;;;19.30;54.60;;;;;;5072538;28;19972;-73
2021/12/30 00:48:17;;;;;;;;;;;19.30;54.70;;;;;;5068400;28;19925;-73
2021/12/30 00:50:43;;;;;;;;;;;19.30;54.80;;;;;;5071575;28;19925;-72
2021/12/30 00:53:09;;;;;;;;;;;19.30;54.80;;;;;;5070889;28;19992;-74
2021/12/30 00:55:34;;;;;;;;;;;19.30;55.00;;;;;;5054987;28;20353;-73
2021/12/30 00:58:00;;;;;;;;;;;19.30;55.10;;;;;;5066809;28;19948;-73
2021/12/30 01:00:26;;;;;;;;;;;19.30;55.20;;;;;;5070625;28;19925;-73
2021/12/30 01:02:52;;;;;;;;;;;19.30;55.30;;;;;;5068695;28;20019;-72
2021/12/30 01:05:17;;;;;;;;;;;19.30;55.40;;;;;;5066721;28;19998;-73
2021/12/30 01:07:43;;;;;;;;;;;19.30;55.50;;;;;;5072198;28;20315;-73
2021/12/30 01:10:09;;;;;;;;;;;19.30;55.60;;;;;;5071834;28;20345;-72
2021/12/30 01:12:35;;;;;;;;;;;19.30;55.60;;;;;;5069935;28;19928;-73
2021/12/30 01:15:08;;;;;;;;;;;19.30;55.60;;;;;;5072209;28;20423;-76
2021/12/30 01:20:32;;;;;;;;;;;18.90;53.90;;;;;;5014626;28;19932;-75
2021/12/30 01:22:57;;;;;;;;;;;19.10;55.30;;;;;;5077430;28;19924;-74
2021/12/30 01:25:23;;;;;;;;;;;19.20;56.00;;;;;;5078613;28;19924;-75
2021/12/30 01:27:48;;;;;;;;;;;19.30;56.10;;;;;;5073134;28;20285;-74
2021/12/30 01:30:16;;;;;;;;;;;19.30;56.20;;;;;;5078787;28;19932;-73
2021/12/30 01:32:42;;;;;;;;;;;19.30;56.40;;;;;;5076749;28;20373;-73
2021/12/30 01:35:10;;;;;;;;;;;19.30;56.50;;;;;;5078237;28;20059;-75
2021/12/30 01:37:36;;;;;;;;;;;19.30;56.70;;;;;;5072862;28;20434;-76
2021/12/30 01:40:02;;;;;;;;;;;19.30;56.80;;;;;;5077710;28;19924;-73
2021/12/30 01:42:30;;;;;;;;;;;19.30;56.90;;;;;;5077526;28;19933;-75
2021/12/30 01:44:56;;;;;;;;;;;19.30;57.00;;;;;;5059002;28;20079;-74
2021/12/30 01:47:24;;;;;;;;;;;19.30;57.10;;;;;;5077438;28;20444;-76
2021/12/30 01:49:51;;;;;;;;;;;19.20;57.20;;;;;;5078220;28;19925;-75
2021/12/30 01:52:17;;;;;;;;;;;19.30;57.20;;;;;;5058852;28;19925;-75
2021/12/30 01:54:42;;;;;;;;;;;19.30;57.50;;;;;;5078242;28;19925;-73
2021/12/30 01:57:08;;;;;;;;;;;19.30;57.60;;;;;;5078226;28;19935;-73
2021/12/30 01:59:33;;;;;;;;;;;19.30;57.70;;;;;;5078432;28;19924;-76
2021/12/30 02:01:59;;;;;;;;;;;19.30;58.00;;;;;;5077534;28;20429;-73
2021/12/30 02:04:25;;;;;;;;;;;19.30;57.90;;;;;;5077933;28;19932;-73
2021/12/30 02:06:51;;;;;;;;;;;19.30;58.00;;;;;;5072675;28;20058;-73
2021/12/30 02:09:19;;;;;;;;;;;19.30;58.20;;;;;;5077495;28;19929;-74
2021/12/30 02:11:44;;;;;;;;;;;19.30;58.20;;;;;;5077207;28;19925;-74
2021/12/30 02:14:10;;;;;;;;;;;19.30;58.40;;;;;;5077928;28;19925;-73
2021/12/30 02:16:37;;;;;;;;;;;19.20;58.40;;;;;;5077554;28;20400;-75
2021/12/30 02:19:03;;;;;;;;;;;19.20;58.50;;;;;;5077104;28;19928;-76
2021/12/30 02:21:29;;;;;;;;;;;19.20;58.50;;;;;;5068336;28;19929;-73
2021/12/30 02:23:54;;;;;;;;;;;19.20;58.70;;;;;;5070657;28;19936;-73
2021/12/30 02:26:20;;;;;;;;;;;19.20;58.90;;;;;;5069691;28;20290;-74
2021/12/30 02:28:45;;;;;;;;;;;19.20;58.90;;;;;;5059019;28;19929;-73
2021/12/30 02:31:14;;;;;;;;;;;19.20;58.90;;;;;;5075430;28;19935;-75
2021/12/30 02:33:40;;;;;;;;;;;19.20;58.90;;;;;;5076910;28;19925;-74
2021/12/30 02:36:06;;;;;;;;;;;19.20;59.00;;;;;;5077984;28;19932;-73
2021/12/30 02:38:31;;;;;;;;;;;19.20;59.30;;;;;;5070843;28;19932;-75
2021/12/30 02:40:58;;;;;;;;;;;19.20;59.30;;;;;;5077637;28;19932;-75
2021/12/30 02:43:28;;;;;;;;;;;19.20;59.30;;;;;;5077119;28;19929;-73
2021/12/30 02:45:54;;;;;;;;;;;19.20;59.60;;;;;;5077624;28;20493;-75
2021/12/30 02:48:21;;;;;;;;;;;19.20;59.70;;;;;;5064819;28;19995;-74
2021/12/30 02:50:48;;;;;;;;;;;19.30;59.90;;;;;;5067127;28;19928;-74
2021/12/30 02:53:14;;;;;;;;;;;19.20;59.70;;;;;;5076822;28;19932;-73
2021/12/30 02:55:40;;;;;;;;;;;19.20;59.80;;;;;;5078324;28;19948;-74
2021/12/30 02:58:05;;;;;;;;;;;19.20;59.80;;;;;;5072353;28;20339;-74
2021/12/30 03:00:31;;;;;;;;;;;19.20;59.80;;;;;;5073964;28;19925;-72
2021/12/30 03:02:57;;;;;;;;;;;19.20;59.90;;;;;;5079630;28;19925;-72
2021/12/30 03:05:24;;;;;;;;;;;19.20;59.90;;;;;;5079985;28;20408;-73
2021/12/30 03:07:50;;;;;;;;;;;19.20;60.00;;;;;;5080093;28;20301;-73
2021/12/30 03:10:20;;;;;;;;;;;19.20;60.00;;;;;;5079201;28;19928;-73
2021/12/30 03:12:52;;;;;;;;;;;19.20;60.00;;;;;;5068256;28;19999;-74
2021/12/30 03:15:17;;;;;;;;;;;19.20;60.10;;;;;;5079116;28;19932;-73
2021/12/30 03:17:43;;;;;;;;;;;19.20;60.00;;;;;;5075812;28;19975;-74
2021/12/30 03:20:09;;;;;;;;;;;19.20;60.10;;;;;;5061722;28;19939;-71
2021/12/30 03:22:36;;;;;;;;;;;19.20;60.10;;;;;;5081249;28;19925;-73
2021/12/30 03:25:03;;;;;;;;;;;19.20;60.20;;;;;;5080298;28;19998;-74
2021/12/30 03:27:28;;;;;;;;;;;19.20;60.20;;;;;;5080152;28;20388;-76
2021/12/30 03:29:54;;;;;;;;;;;19.20;60.20;;;;;;5077590;28;19972;-74
2021/12/30 03:32:19;;;;;;;;;;;19.20;60.40;;;;;;5071983;28;20511;-76
2021/12/30 03:34:45;;;;;;;;;;;19.20;60.50;;;;;;5079829;28;19925;-74
2021/12/30 03:37:10;;;;;;;;;;;19.20;60.40;;;;;;5075775;28;19956;-73
2021/12/30 03:39:37;;;;;;;;;;;19.20;60.40;;;;;;5079761;28;19971;-74
2021/12/30 03:42:02;;;;;;;;;;;19.20;60.50;;;;;;5074024;28;19935;-72
2021/12/30 03:44:28;;;;;;;;;;;19.20;60.60;;;;;;5079459;28;19944;-73
2021/12/30 03:46:54;;;;;;;;;;;19.20;60.50;;;;;;5074047;28;20444;-74
2021/12/30 03:49:20;;;;;;;;;;;19.20;60.60;;;;;;5080226;28;20019;-74
2021/12/30 03:51:45;;;;;;;;;;;19.20;60.50;;;;;;5079055;28;20044;-75
2021/12/30 03:54:11;;;;;;;;;;;19.20;60.50;;;;;;5075496;28;19928;-74
2021/12/30 03:56:36;;;;;;;;;;;19.10;60.60;;;;;;5077366;28;19924;-73
2021/12/30 03:59:03;;;;;;;;;;;19.10;60.60;;;;;;5071912;28;20397;-75
2021/12/30 04:01:29;;;;;;;;;;;19.10;60.70;;;;;;5078886;28;19936;-74
2021/12/30 04:03:55;;;;;;;;;;;19.10;60.80;;;;;;5080680;28;20399;-76
2021/12/30 04:06:21;;;;;;;;;;;19.10;60.90;;;;;;5078042;28;19929;-76
2021/12/30 04:08:47;;;;;;;;;;;19.10;60.90;;;;;;5075690;28;19932;-75
2021/12/30 04:11:13;;;;;;;;;;;19.10;60.80;;;;;;5078077;28;19925;-74
2021/12/30 04:13:38;;;;;;;;;;;19.10;60.90;;;;;;5080419;28;19991;-74
2021/12/30 04:16:04;;;;;;;;;;;19.10;61.00;;;;;;5075523;28;19929;-73
2021/12/30 04:18:30;;;;;;;;;;;19.10;60.90;;;;;;5077326;28;19925;-74
2021/12/30 04:20:55;;;;;;;;;;;19.10;60.90;;;;;;5077038;28;19960;-74
2021/12/30 04:23:21;;;;;;;;;;;19.10;60.90;;;;;;5075545;28;19925;-75
2021/12/30 04:25:46;;;;;;;;;;;19.10;61.00;;;;;;5079834;28;20444;-75
2021/12/30 04:28:12;;;;;;;;;;;19.10;60.90;;;;;;5076309;28;19979;-75
2021/12/30 04:30:37;;;;;;;;;;;19.10;60.90;;;;;;5079778;28;19925;-74
2021/12/30 04:33:03;;;;;;;;;;;19.10;61.00;;;;;;5079056;28;19925;-75
2021/12/30 04:35:29;;;;;;;;;;;19.10;61.00;;;;;;5079358;28;19929;-74
2021/12/30 04:37:55;;;;;;;;;;;19.10;61.00;;;;;;5077529;28;20293;-73
2021/12/30 04:40:20;;;;;;;;;;;19.10;61.00;;;;;;5078844;28;19936;-74
2021/12/30 04:42:46;;;;;;;;;;;19.10;61.10;;;;;;5078454;28;19964;-74
2021/12/30 04:45:11;;;;;;;;;;;19.10;61.20;;;;;;5078481;28;19967;-72
2021/12/30 04:47:40;;;;;;;;;;;19.10;61.30;;;;;;5072451;28;19964;-74
2021/12/30 04:50:07;;;;;;;;;;;19.10;61.30;;;;;;5078805;28;20364;-73
2021/12/30 04:52:33;;;;;;;;;;;19.10;61.40;;;;;;5078495;28;19928;-73
2021/12/30 04:54:58;;;;;;;;;;;19.10;61.40;;;;;;5067589;28;19925;-73
2021/12/30 04:57:24;;;;;;;;;;;19.10;61.40;;;;;;5077219;28;19929;-72
2021/12/30 04:59:49;;;;;;;;;;;19.10;61.50;;;;;;5079034;28;19929;-75
2021/12/30 05:02:15;;;;;;;;;;;19.10;61.50;;;;;;5079901;28;19972;-76
2021/12/30 05:04:40;;;;;;;;;;;19.10;61.50;;;;;;5060622;28;20024;-73
2021/12/30 05:07:06;;;;;;;;;;;19.10;61.50;;;;;;5078650;28;20009;-75
2021/12/30 05:09:31;;;;;;;;;;;19.10;61.60;;;;;;5079476;28;20389;-73
2021/12/30 05:11:57;;;;;;;;;;;19.10;61.50;;;;;;5078936;28;19975;-73
2021/12/30 05:14:23;;;;;;;;;;;19.10;61.60;;;;;;5078197;28;20011;-73
2021/12/30 05:16:49;;;;;;;;;;;19.10;61.50;;;;;;5078579;28;19932;-73
2021/12/30 05:19:15;;;;;;;;;;;19.10;61.60;;;;;;5067599;28;19933;-75
2021/12/30 05:21:41;;;;;;;;;;;19.00;61.60;;;;;;5065471;28;19929;-73
2021/12/30 05:24:07;;;;;;;;;;;19.10;61.60;;;;;;5079688;28;19924;-73
2021/12/30 05:26:32;;;;;;;;;;;19.10;61.70;;;;;;5079123;28;19924;-73
2021/12/30 05:28:59;;;;;;;;;;;19.10;61.80;;;;;;5078024;28;19991;-75
2021/12/30 05:31:25;;;;;;;;;;;19.10;61.70;;;;;;5078270;28;19928;-74
2021/12/30 05:33:51;;;;;;;;;;;19.00;61.50;;;;;;5077083;28;20365;-76
2021/12/30 05:36:17;;;;;;;;;;;19.10;61.80;;;;;;5078751;28;19932;-73
2021/12/30 05:38:42;;;;;;;;;;;19.00;61.60;;;;;;5070198;28;19925;-74
2021/12/30 05:41:08;;;;;;;;;;;19.10;61.80;;;;;;5077572;28;19929;-73
2021/12/30 05:43:33;;;;;;;;;;;19.10;61.90;;;;;;5078486;28;19929;-74
2021/12/30 05:45:59;;;;;;;;;;;19.10;62.00;;;;;;5078428;28;20285;-73
2021/12/30 05:48:25;;;;;;;;;;;19.10;61.90;;;;;;5073603;28;20308;-74
2021/12/30 05:50:50;;;;;;;;;;;19.00;61.90;;;;;;5070487;28;19999;-73
2021/12/30 05:53:16;;;;;;;;;;;19.00;61.80;;;;;;5074586;28;19935;-74
2021/12/30 05:55:42;;;;;;;;;;;19.00;61.80;;;;;;5069180;28;19929;-74
2021/12/30 05:58:07;;;;;;;;;;;19.10;61.80;;;;;;5071026;28;20401;-74
2021/12/30 06:00:33;;;;;;;;;;;19.10;61.80;;;;;;5073798;28;19933;-73
2021/12/30 06:02:59;;;;;;;;;;;19.10;61.80;;;;;;5057911;28;19948;-74
2021/12/30 06:05:24;;;;;;;;;;;19.00;61.80;;;;;;5058783;28;19931;-73
2021/12/30 06:07:50;;;;;;;;;;;19.10;61.80;;;;;;5068511;28;19975;-74
2021/12/30 06:10:16;;;;;;;;;;;19.00;61.80;;;;;;5058496;28;20275;-73
2021/12/30 06:12:43;;;;;;;;;;;19.00;61.80;;;;;;5067169;28;20047;-74
2021/12/30 06:15:09;;;;;;;;;;;19.00;61.80;;;;;;5087232;28;19925;-73
2021/12/30 06:17:36;;;;;;;;;;;19.00;61.80;;;;;;5081796;28;19929;-73
2021/12/30 06:20:02;;;;;;;;;;;19.00;61.80;;;;;;5077587;28;20505;-73
2021/12/30 06:22:28;;;;;;;;;;;19.00;61.80;;;;;;5073612;28;19933;-73
2021/12/30 06:24:53;;;;;;;;;;;19.10;61.90;;;;;;5069918;28;19935;-74
2021/12/30 06:27:19;;;;;;;;;;;19.00;61.80;;;;;;5058310;28;19978;-74
2021/12/30 06:29:44;;;;;;;;;;;19.00;61.80;;;;;;5061552;28;20360;-73
2021/12/30 06:32:10;;;;;;;;;;;19.00;61.80;;;;;;5066118;28;20297;-73
2021/12/30 06:34:35;;;;;;;;;;;19.00;61.80;;;;;;5067776;28;20478;-74
2021/12/30 06:37:01;;;;;;;;;;;19.00;61.60;;;;;;5064431;28;19975;-74
2021/12/30 06:39:26;;;;;;;;;;;19.00;61.70;;;;;;5058612;28;19925;-74
2021/12/30 06:41:52;;;;;;;;;;;19.00;61.20;;;;;;5061294;28;19929;-74
2021/12/30 06:44:17;;;;;;;;;;;19.00;61.60;;;;;;5073070;28;19928;-74
2021/12/30 06:46:52;;;;;;;;;;;19.00;61.50;;;;;;5065409;28;19925;-76
2021/12/30 06:49:17;;;;;;;;;;;18.90;61.30;;;;;;5074986;28;19983;-75
2021/12/30 06:51:43;;;;;;;;;;;18.90;61.50;;;;;;5061681;28;19968;-74
2021/12/30 06:54:09;;;;;;;;;;;18.90;61.40;;;;;;5061441;28;19961;-74
2021/12/30 06:56:35;;;;;;;;;;;19.00;61.70;;;;;;5065187;28;20452;-74
2021/12/30 06:59:01;;;;;;;;;;;19.00;61.60;;;;;;5081160;28;20348;-73
2021/12/30 07:01:30;;;;;;;;;;;18.90;61.50;;;;;;5071483;28;20383;-74
2021/12/30 07:03:56;;;;;;;;;;;18.40;61.20;;;;;;5068135;28;19983;-74
2021/12/30 07:06:21;;;;;;;;;;;18.90;61.50;;;;;;5066675;28;20388;-74
2021/12/30 07:08:47;;;;;;;;;;;18.90;61.40;;;;;;5081514;28;20165;-74
2021/12/30 07:11:12;;;;;;;;;;;18.90;61.30;;;;;;5081348;28;20292;-73
2021/12/30 07:13:38;;;;;;;;;;;18.90;61.10;;;;;;5081848;28;20354;-74
2021/12/30 07:16:03;;;;;;;;;;;18.90;61.30;;;;;;5081390;28;19931;-75
2021/12/30 07:18:29;;;;;;;;;;;18.90;61.40;;;;;;5080080;28;19933;-74
2021/12/30 07:20:54;;;;;;;;;;;18.90;61.50;;;;;;5080719;28;20045;-74
2021/12/30 07:23:20;;;;;;;;;;;18.90;61.40;;;;;;5081576;28;19959;-74
2021/12/30 07:25:45;;;;;;;;;;;19.00;61.60;;;;;;5081378;28;19924;-75
2021/12/30 07:28:11;;;;;;;;;;;18.90;61.30;;;;;;5080141;28;20011;-74
2021/12/30 07:30:37;;;;;;;;;;;18.90;61.50;;;;;;5081113;28;20403;-74
2021/12/30 07:33:06;;;;;;;;;;;18.90;61.40;;;;;;5081482;28;19925;-74
2021/12/30 07:35:32;;;;;;;;;;;18.90;61.50;;;;;;5062379;28;19929;-74
2021/12/30 07:37:57;;;;;;;;;;;19.00;62.00;;;;;;5061175;28;19932;-74
2021/12/30 07:40:23;;;;;;;;;;;18.90;61.60;;;;;;5065907;28;19924;-73
2021/12/30 07:42:48;;;;;;;;;;;18.90;62.00;;;;;;5081539;28;20389;-72
2021/12/30 07:45:15;;;;;;;;;;;18.90;61.90;;;;;;5077394;28;20024;-73
2021/12/30 07:47:40;;;;;;;;;;;19.00;62.10;;;;;;5078504;28;19951;-74
2021/12/30 07:50:06;;;;;;;;;;;18.60;57.80;;;;;;5062793;28;20433;-76
2021/12/30 07:52:32;;;;;;;;;;;18.40;56.80;;;;;;5066162;28;19933;-76
2021/12/30 07:54:57;;;;;;;;;;;18.10;56.30;;;;;;5073711;28;19928;-76
2021/12/30 07:57:23;;;;;;;;;;;18.00;55.50;;;;;;5078514;28;20031;-76
2021/12/30 07:59:49;;;;;;;;;;;17.80;54.80;;;;;;5079159;28;20028;-77
2021/12/30 08:02:14;;;;;;;;;;;17.70;54.40;;;;;;5078380;28;19935;-75
2021/12/30 08:04:40;;;;;;;;;;;17.60;53.80;;;;;;5078401;28;19994;-76
2021/12/30 08:07:06;;;;;;;;;;;17.60;53.70;;;;;;5080003;28;19929;-74
2021/12/30 08:09:32;;;;;;;;;;;17.50;53.50;;;;;;5066838;28;19931;-76
2021/12/30 08:11:59;;;;;;;;;;;17.50;53.00;;;;;;5072375;28;19974;-76
2021/12/30 08:14:25;;;;;;;;;;;17.50;52.80;;;;;;5079696;28;19940;-75
2021/12/30 08:16:50;;;;;;;;;;;17.40;52.20;;;;;;5079776;28;20321;-76
2021/12/30 08:19:16;;;;;;;;;;;17.40;52.10;;;;;;5064756;28;19925;-75
2021/12/30 08:21:42;;;;;;;;;;;17.30;52.00;;;;;;5077626;28;20028;-74
2021/12/30 08:24:10;;;;;;;;;;;17.30;51.80;;;;;;5075620;28;19925;-78
2021/12/30 08:26:36;;;;;;;;;;;17.30;51.40;;;;;;5067897;28;19936;-75
2021/12/30 08:29:02;;;;;;;;;;;17.30;51.50;;;;;;5079792;28;19937;-75
2021/12/30 08:31:28;;;;;;;;;;;17.20;51.30;;;;;;5078293;28;19974;-74
2021/12/30 08:33:53;;;;;;;;;;;17.10;51.10;;;;;;5079488;28;19925;-73
2021/12/30 08:36:19;;;;;;;;;;;17.10;51.00;;;;;;5079426;28;19975;-72
2021/12/30 08:38:44;;;;;;;;;;;17.10;51.00;;;;;;5080153;28;19928;-74
2021/12/30 08:41:10;;;;;;;;;;;17.00;50.80;;;;;;5080377;28;19925;-73
2021/12/30 08:43:35;;;;;;;;;;;17.10;50.90;;;;;;5080394;28;19929;-72
2021/12/30 08:46:01;;;;;;;;;;;17.00;50.80;;;;;;5080282;28;19931;-72
2021/12/30 08:48:27;;;;;;;;;;;17.00;50.80;;;;;;5080544;28;19932;-74
2021/12/30 08:50:52;;;;;;;;;;;17.10;50.80;;;;;;5080943;28;19924;-73
2021/12/30 08:53:18;;;;;;;;;;;17.00;50.70;;;;;;5080406;28;20011;-72
2021/12/30 08:55:44;;;;;;;;;;;17.10;50.80;;;;;;5080682;28;19925;-73
2021/12/30 08:58:09;;;;;;;;;;;17.00;50.70;;;;;;5079317;28;20019;-75
2021/12/30 09:00:38;;;;;;;;;;;17.00;50.70;;;;;;5080344;28;20456;-75
2021/12/30 09:03:05;;;;;;;;;;;17.10;50.70;;;;;;5080366;28;20023;-73
2021/12/30 09:05:33;;;;;;;;;;;17.00;50.60;;;;;;5078210;28;19925;-79
2021/12/30 09:07:59;;;;;;;;;;;17.10;50.50;;;;;;5078207;28;19932;-74
2021/12/30 09:10:24;;;;;;;;;;;17.10;50.90;;;;;;5080359;28;20337;-74
2021/12/30 09:12:51;;;;;;;;;;;17.10;50.40;;;;;;5077830;28;19931;-74
2021/12/30 09:15:17;;;;;;;;;;;17.10;50.10;;;;;;5057996;28;19971;-75
2021/12/30 09:17:44;;;;;;;;;;;17.00;50.20;;;;;;5079111;28;19925;-75
2021/12/30 09:20:10;;;;;;;;;;;17.10;50.20;;;;;;5079284;28;20397;-74
2021/12/30 09:22:35;;;;;;;;;;;17.10;50.20;;;;;;5079127;28;20010;-74
2021/12/30 09:25:05;;;;;;;;;;;17.10;50.20;;;;;;5078931;28;20020;-74
2021/12/30 09:27:32;;;;;;;;;;;17.10;50.20;;;;;;5079385;28;19924;-75
2021/12/30 09:29:59;;;;;;;;;;;17.10;50.00;;;;;;5079037;28;19999;-74
2021/12/30 09:32:24;;;;;;;;;;;17.10;50.10;;;;;;5078856;28;19925;-73
2021/12/30 09:34:50;;;;;;;;;;;17.10;50.10;;;;;;5078984;28;20266;-73
2021/12/30 09:37:16;;;;;;;;;;;17.20;50.00;;;;;;5079133;28;19964;-74
2021/12/30 09:39:41;;;;;;;;;;;17.20;50.00;;;;;;5079121;28;20390;-74
2021/12/30 09:42:07;;;;;;;;;;;17.30;50.00;;;;;;5079168;28;19925;-73
2021/12/30 09:44:32;;;;;;;;;;;17.30;50.10;;;;;;5078889;28;20553;-73
2021/12/30 09:46:59;;;;;;;;;;;17.30;50.00;;;;;;5074071;28;19924;-73
2021/12/30 09:49:24;;;;;;;;;;;17.30;49.90;;;;;;5060856;28;20459;-73
2021/12/30 09:51:50;;;;;;;;;;;17.30;49.60;;;;;;5078761;28;19925;-73
2021/12/30 09:54:16;;;;;;;;;;;17.20;49.40;;;;;;5078977;28;19978;-74
2021/12/30 09:56:42;;;;;;;;;;;17.20;49.50;;;;;;5078868;28;19925;-74
2021/12/30 09:59:08;;;;;;;;;;;17.20;49.60;;;;;;5078219;28;20474;-75
2021/12/30 10:01:34;;;;;;;;;;;17.20;49.40;;;;;;5070534;28;20063;-76
2021/12/30 10:04:01;;;;;;;;;;;17.30;49.00;;;;;;5078353;28;19932;-73
2021/12/30 10:06:29;;;;;;;;;;;17.20;49.20;;;;;;5078389;28;20434;-73
2021/12/30 10:09:05;;;;;;;;;;;17.30;49.20;;;;;;5080227;28;19924;-73
2021/12/30 10:11:41;;;;;;;;;;;17.30;49.20;;;;;;5090560;28;20416;-74
2021/12/30 10:14:07;;;;;;;;;;;17.30;49.20;;;;;;5083104;28;20056;-73
2021/12/30 10:16:33;;;;;;;;;;;17.30;49.10;;;;;;5077178;28;20421;-74
2021/12/30 10:19:00;;;;;;;;;;;17.10;49.60;;;;;;5060165;28;20321;-74
2021/12/30 10:21:29;;;;;;;;;;;17.30;49.10;;;;;;5081692;28;19925;-74
2021/12/30 10:23:56;;;;;;;;;;;17.30;49.10;;;;;;5086703;28;20051;-74
2021/12/30 10:26:22;;;;;;;;;;;17.30;49.10;;;;;;5089260;28;19928;-73
2021/12/30 10:28:48;;;;;;;;;;;17.30;49.10;;;;;;5086250;28;20636;-73
2021/12/30 10:31:13;;;;;;;;;;;17.30;49.10;;;;;;5086682;28;19928;-74
2021/12/30 10:33:53;;;;;;;;;;;17.40;49.10;;;;;;5089431;28;20290;-74
2021/12/30 10:36:24;;;;;;;;;;;17.30;49.00;;;;;;5089732;28;20031;-73
2021/12/30 10:38:50;;;;;;;;;;;17.30;49.00;;;;;;5083079;28;19924;-73
2021/12/30 10:41:16;;;;;;;;;;;17.40;48.90;;;;;;5085801;28;19951;-73
2021/12/30 10:46:07;;;;;;;;;;;17.40;49.00;;;;;;5081097;28;19924;-72
2021/12/30 10:48:33;;;;;;;;;;;17.40;48.90;;;;;;5081286;28;19979;-72
2021/12/30 10:51:09;;;;;;;;;;;17.40;48.90;;;;;;5082020;28;19931;-74
2021/12/30 10:53:36;;;;;;;;;;;17.40;48.90;;;;;;5082201;28;19925;-73
2021/12/30 10:56:37;;;;;;;;;;;17.40;48.90;;;;;;5063405;28;19964;-73
2021/12/30 10:59:22;;;;;;;;;;;17.50;48.90;;;;;;4979986;28;19934;-73
2021/12/30 11:01:50;;;;;;;;;;;17.50;48.80;;;;;;4980214;28;19949;-73
2021/12/30 11:04:16;;;;;;;;;;;17.50;48.80;;;;;;4980363;28;19927;-72
2021/12/30 11:06:42;;;;;;;;;;;17.50;48.90;;;;;;4982794;28;19926;-72
2021/12/30 11:09:12;;;;;;;;;;;17.50;48.80;;;;;;4999275;28;19927;-74
2021/12/30 11:11:42;;;;;;;;;;;17.50;48.90;;;;;;4999785;28;20559;-73
2021/12/30 11:14:09;;;;;;;;;;;17.50;48.80;;;;;;4999760;28;19926;-74
2021/12/30 11:16:52;;;;;;;;;;;17.50;48.60;;;;;;4999334;28;19926;-73
2021/12/30 11:19:18;;;;;;;;;;;17.60;48.60;;;;;;4998662;28;20391;-74
2021/12/30 11:21:44;;;;;;;;;;;17.60;48.60;;;;;;4998497;28;19985;-73
2021/12/30 11:24:10;;;;;;;;;;;17.60;48.70;;;;;;4998080;28;19926;-73
2021/12/30 11:26:36;;;;;;;;;;;17.60;48.60;;;;;;4996860;28;19961;-74
2021/12/30 11:29:03;;;;;;;;;;;17.70;48.70;;;;;;4980007;28;20299;-73
2021/12/30 11:31:30;;;;;;;;;;;17.70;48.70;;;;;;4980014;28;19927;-74
2021/12/30 11:33:56;;;;;;;;;;;17.70;48.70;;;;;;5050772;28;19931;-74
2021/12/30 11:36:21;;;;;;;;;;;17.70;48.70;;;;;;5061062;28;20320;-74
2021/12/30 11:38:47;;;;;;;;;;;17.70;48.70;;;;;;5061478;28;19924;-73
2021/12/30 11:41:17;;;;;;;;;;;17.70;48.70;;;;;;5057218;28;19936;-74
2021/12/30 11:43:43;;;;;;;;;;;17.70;48.70;;;;;;5060759;28;19929;-73
2021/12/30 11:46:48;;;;;;;;;;;17.70;48.70;;;;;;5060357;28;20534;-72
2021/12/30 11:49:14;;;;;;;;;;;17.70;48.70;;;;;;4979339;28;19982;-74
2021/12/30 11:51:41;;;;;;;;;;;17.70;48.70;;;;;;4978686;28;20018;-73
2021/12/30 11:54:25;;;;;;;;;;;17.70;48.70;;;;;;4978564;28;20036;-73
2021/12/30 11:57:09;;;;;;;;;;;17.70;48.70;;;;;;4979557;28;19927;-73
2021/12/30 11:59:39;;;;;;;;;;;17.70;48.80;;;;;;4962063;28;20041;-73
2021/12/30 12:02:36;;;;;;;;;;;17.70;49.30;;;;;;4978486;28;19937;-75
2021/12/30 12:05:20;;;;;;;;;;;17.80;49.00;;;;;;4949981;28;19926;-85
2021/12/30 12:08:05;;;;;;;;;;;17.70;49.10;;;;;;4978546;28;19926;-87
2021/12/30 12:10:31;;;;;;;;;;;17.40;49.10;;;;;;4962437;28;20475;-78
2021/12/30 12:12:56;;;;;;;;;;;17.30;49.80;;;;;;4962597;28;20025;-80
2021/12/30 12:15:22;;;;;;;;;;;17.20;49.70;;;;;;4979190;28;19949;-75
2021/12/30 12:17:47;;;;;;;;;;;17.10;49.90;;;;;;4978884;28;20037;-75
2021/12/30 12:20:15;;;;;;;;;;;16.90;50.30;;;;;;5026714;28;20314;-74
2021/12/30 12:22:41;;;;;;;;;;;16.90;50.50;;;;;;5042293;28;19929;-74
2021/12/30 12:25:18;;;;;;;;;;;16.80;50.60;;;;;;5056551;28;20389;-75
2021/12/30 12:27:48;;;;;;;;;;;16.80;51.10;;;;;;5057791;28;20023;-75
2021/12/30 12:30:21;;;;;;;;;;;17.00;50.70;;;;;;5057469;28;20413;-76
2021/12/30 12:32:47;;;;;;;;;;;16.80;50.60;;;;;;5058298;28;19925;-76
2021/12/30 12:35:18;;;;;;;;;;;16.90;50.50;;;;;;5062533;28;20043;-75
2021/12/30 12:37:47;;;;;;;;;;;16.80;50.80;;;;;;5069834;28;19925;-77
2021/12/30 12:40:21;;;;;;;;;;;16.90;50.90;;;;;;5080526;28;20347;-77
2021/12/30 12:42:52;;;;;;;;;;;17.10;50.80;;;;;;5070491;28;19928;-77
2021/12/30 12:45:19;;;;;;;;;;;17.30;50.80;;;;;;5059768;28;19929;-76
2021/12/30 12:47:45;;;;;;;;;;;17.40;50.70;;;;;;5059718;28;19971;-76
2021/12/30 12:50:11;;;;;;;;;;;17.50;50.60;;;;;;5060113;28;19924;-77
2021/12/30 12:52:40;;;;;;;;;;;17.50;50.60;;;;;;5064905;28;19935;-77
2021/12/30 12:55:06;;;;;;;;;;;17.60;50.60;;;;;;5064113;28;19929;-75
2021/12/30 12:57:31;;;;;;;;;;;17.70;50.50;;;;;;5060852;28;19929;-76
2021/12/30 12:59:57;;;;;;;;;;;17.70;50.50;;;;;;5064658;28;19976;-78
2021/12/30 13:02:22;;;;;;;;;;;17.70;50.00;;;;;;5074977;28;20020;-77
2021/12/30 13:04:48;;;;;;;;;;;17.60;50.10;;;;;;5074489;28;19982;-75
2021/12/30 13:07:17;;;;;;;;;;;17.60;50.30;;;;;;5064100;28;20300;-75
2021/12/30 13:09:43;;;;;;;;;;;17.70;50.40;;;;;;5058504;28;20016;-74
2021/12/30 13:12:09;;;;;;;;;;;17.70;50.30;;;;;;5065643;28;19925;-74
2021/12/30 13:14:37;;;;;;;;;;;17.70;50.40;;;;;;5076864;28;19951;-76
2021/12/30 13:17:04;;;;;;;;;;;17.80;50.40;;;;;;5071365;28;19925;-78
2021/12/30 13:19:34;;;;;;;;;;;17.80;50.20;;;;;;5058853;28;19935;-75
2021/12/30 13:22:01;;;;;;;;;;;17.70;50.10;;;;;;5058573;28;20468;-76
2021/12/30 13:24:36;;;;;;;;;;;17.50;50.10;;;;;;5060476;28;20019;-75
2021/12/30 13:27:06;;;;;;;;;;;17.40;50.10;;;;;;5065730;28;19936;-74
2021/12/30 13:29:37;;;;;;;;;;;17.40;50.00;;;;;;5057384;28;19929;-75
2021/12/30 13:32:05;;;;;;;;;;;17.30;49.60;;;;;;5057998;28;20476;-74
2021/12/30 13:34:30;;;;;;;;;;;17.00;49.80;;;;;;5058222;28;19932;-78
2021/12/30 13:37:13;;;;;;;;;;;17.00;50.00;;;;;;5060955;28;20306;-75
2021/12/30 13:39:38;;;;;;;;;;;16.80;50.00;;;;;;5064994;28;20370;-76
2021/12/30 13:42:04;;;;;;;;;;;16.50;50.40;;;;;;5058959;28;19925;-76
2021/12/30 13:44:37;;;;;;;;;;;16.30;51.10;;;;;;5039570;28;20382;-76
2021/12/30 13:47:20;;;;;;;;;;;16.20;51.00;;;;;;5043518;28;19979;-77
2021/12/30 13:49:46;;;;;;;;;;;16.20;51.10;;;;;;5076917;28;20023;-77
2021/12/30 13:52:12;;;;;;;;;;;16.40;51.10;;;;;;5077899;28;20286;-74
2021/12/30 13:54:37;;;;;;;;;;;16.30;51.10;;;;;;5077151;28;19935;-76
2021/12/30 13:57:03;;;;;;;;;;;16.30;51.40;;;;;;5076676;28;20309;-76
2021/12/30 13:59:29;;;;;;;;;;;16.20;51.40;;;;;;5078063;28;19929;-76
2021/12/30 14:01:56;;;;;;;;;;;16.00;51.60;;;;;;5078425;28;19972;-75
2021/12/30 14:04:28;;;;;;;;;;;16.10;51.50;;;;;;5074831;28;19931;-79
2021/12/30 14:06:57;;;;;;;;;;;16.20;51.60;;;;;;5068268;28;19925;-75
2021/12/30 14:09:23;;;;;;;;;;;16.20;51.50;;;;;;5078578;28;19932;-78
2021/12/30 14:11:50;;;;;;;;;;;16.20;51.50;;;;;;5083956;28;19929;-78
2021/12/30 14:14:17;;;;;;;;;;;16.10;51.30;;;;;;5087296;28;19928;-77
2021/12/30 14:16:46;;;;;;;;;;;16.20;51.40;;;;;;5071786;28;19936;-76
2021/12/30 14:19:13;;;;;;;;;;;16.40;51.30;;;;;;5071566;28;19929;-76
2021/12/30 14:21:40;;;;;;;;;;;16.60;51.10;;;;;;5067896;28;19943;-78